createdAt,value
2023-02-22T12:07:39.870Z,22.76
2023-02-22T12:09:44.461Z,22.91
2023-02-22T12:11:48.949Z,23.02
2023-02-22T12:13:53.419Z,23.12
2023-02-22T12:15:57.928Z,23.22
2023-02-22T12:18:02.749Z,23.32
2023-02-22T12:20:07.136Z,23.37
2023-02-22T12:22:11.649Z,23.44
2023-02-22T12:24:16.019Z,23.5
2023-02-22T12:26:21.596Z,23.54
2023-02-22T12:28:26.164Z,23.58
2023-02-22T12:30:30.902Z,23.59
2023-02-22T12:32:35.718Z,23.62
2023-02-22T12:34:40.479Z,23.63
2023-02-22T12:36:45.452Z,23.66
2023-02-22T12:38:49.957Z,23.68
2023-02-22T12:40:54.586Z,23.64
2023-02-22T12:42:59.009Z,23.69
2023-02-22T12:45:05.729Z,23.75
2023-02-22T12:47:14.494Z,23.83
2023-02-22T12:49:18.893Z,23.91
2023-02-22T12:51:23.456Z,23.99
2023-02-22T12:53:27.843Z,24.09
2023-02-22T12:55:32.366Z,24.18
2023-02-22T12:57:36.826Z,24.26
2023-02-22T12:59:41.459Z,24.36
2023-02-22T13:01:45.921Z,24.44
2023-02-22T13:03:50.477Z,24.52
2023-02-22T13:05:55.058Z,24.59
2023-02-22T13:07:59.494Z,24.65
2023-02-22T13:10:03.941Z,24.72
2023-02-22T13:12:08.307Z,24.79
2023-02-22T13:14:12.782Z,24.84
2023-02-22T13:16:17.319Z,24.82
2023-02-22T13:18:22.255Z,24.86
2023-02-22T13:20:26.883Z,24.9
2023-02-22T13:22:31.557Z,24.91
2023-02-22T13:24:36.151Z,24.92
2023-02-22T13:26:43.897Z,24.94
2023-02-22T13:28:48.535Z,24.96
2023-02-22T13:30:53.049Z,24.95
2023-02-22T13:32:57.692Z,24.98
2023-02-22T13:35:02.132Z,24.96
2023-02-22T13:37:06.659Z,24.98
2023-02-22T13:39:11.228Z,24.98
2023-02-22T13:41:15.850Z,24.99
2023-02-22T13:43:21.211Z,25.01
2023-02-22T13:45:25.556Z,25.02
2023-02-22T13:47:29.959Z,25.02
2023-02-22T13:49:34.443Z,25.06
2023-02-22T13:51:38.992Z,25.06
2023-02-22T13:53:43.376Z,25.06
2023-02-22T13:55:48.030Z,25.08
2023-02-22T13:57:52.412Z,25.09
2023-02-22T13:59:57.129Z,25.1
2023-02-22T14:02:01.680Z,25.12
2023-02-22T14:04:06.303Z,25.12
2023-02-22T14:06:10.822Z,25.15
2023-02-22T14:08:15.326Z,25.17
2023-02-22T14:10:19.803Z,25.16
2023-02-22T14:12:24.369Z,25.17
2023-02-22T14:14:28.836Z,25.17
2023-02-22T14:16:33.247Z,25.17
2023-02-22T14:18:37.949Z,25.18
2023-02-22T14:20:42.331Z,25.16
2023-02-22T14:22:48.053Z,25.16
2023-02-22T14:24:52.868Z,25.17
2023-02-22T14:26:57.327Z,25.17
2023-02-22T14:29:01.738Z,25.16
2023-02-22T14:31:06.425Z,25.18
2023-02-22T14:33:11.359Z,25.19
2023-02-22T14:35:26.364Z,25.21
2023-02-22T14:37:52.103Z,25.22
2023-02-22T14:39:56.707Z,25.19
2023-02-22T14:42:01.120Z,25.21
2023-02-22T14:44:05.500Z,25.23
2023-02-22T14:46:11.861Z,25.24
2023-02-22T14:48:18.111Z,25.26
2023-02-22T14:50:22.535Z,25.27
2023-02-22T14:52:26.948Z,25.25
2023-02-22T14:54:31.499Z,25.27
2023-02-22T14:56:35.911Z,25.28
2023-02-22T14:58:40.444Z,25.28
2023-02-22T15:00:44.895Z,25.3
2023-02-22T15:02:49.352Z,25.28
2023-02-22T15:04:53.956Z,25.28
2023-02-22T15:06:58.716Z,25.23
2023-02-22T15:09:03.241Z,25.23
2023-02-22T15:11:07.809Z,25.23
2023-02-22T15:13:12.313Z,25.23
2023-02-22T15:15:16.908Z,25.23
2023-02-22T15:17:21.423Z,25.24
2023-02-22T15:19:25.965Z,25.22
2023-02-22T15:21:30.502Z,25.2
2023-02-22T15:23:34.907Z,25.19
2023-02-22T15:25:39.870Z,25.19
2023-02-22T15:27:44.295Z,25.19
2023-02-22T15:29:48.881Z,25.17
2023-02-22T15:31:53.800Z,25.18
2023-02-22T15:33:58.262Z,25.22
2023-02-22T15:36:02.810Z,25.25
2023-02-22T15:38:07.791Z,25.22
2023-02-22T15:40:12.220Z,25.25
2023-02-22T15:42:16.661Z,25.3
2023-02-22T15:44:23.861Z,25.32
2023-02-22T15:46:28.688Z,25.33
2023-02-22T15:48:33.121Z,25.35
2023-02-22T15:50:37.631Z,25.36
2023-02-22T15:52:42.066Z,25.37
2023-02-22T15:54:46.549Z,25.34
2023-02-22T15:56:50.965Z,25.34
2023-02-22T15:58:55.435Z,25.34
2023-02-22T16:01:00.195Z,25.36
2023-02-22T16:03:04.791Z,25.35
2023-02-22T16:05:09.175Z,25.37
2023-02-22T16:07:13.698Z,25.39
2023-02-22T16:09:18.117Z,25.41
2023-02-22T16:11:23.073Z,25.39
2023-02-22T16:13:32.283Z,25.41
2023-02-22T16:15:37.283Z,25.42
2023-02-22T16:17:52.589Z,25.43
2023-02-22T16:20:06.153Z,25.46
2023-02-22T16:22:10.555Z,25.46
2023-02-22T16:24:15.829Z,25.45
2023-02-22T16:26:20.368Z,25.44
2023-02-22T16:28:24.809Z,25.43
2023-02-22T16:30:29.349Z,25.45
2023-02-22T16:32:34.429Z,25.45
2023-02-22T16:34:39.090Z,25.4
2023-02-22T16:36:43.722Z,25.4
2023-02-22T16:38:48.252Z,25.41
2023-02-22T16:40:52.725Z,25.4
2023-02-22T16:42:57.213Z,25.41
2023-02-22T16:45:01.606Z,25.42
2023-02-22T16:47:06.190Z,25.43
2023-02-22T16:49:10.568Z,25.42
2023-02-22T16:51:15.090Z,25.41
2023-02-22T16:53:19.563Z,25.41
2023-02-22T16:55:24.095Z,25.39
2023-02-22T16:57:28.623Z,25.42
2023-02-22T16:59:33.017Z,25.44
2023-02-22T17:01:37.480Z,25.45
2023-02-22T17:03:42.170Z,25.47
2023-02-22T17:05:46.832Z,25.48
2023-02-22T17:07:51.657Z,25.5
2023-02-22T17:09:56.193Z,25.5
2023-02-22T17:12:00.653Z,25.51
2023-02-22T17:14:05.162Z,25.51
2023-02-22T17:16:09.714Z,25.5
2023-02-22T17:18:14.332Z,25.51
2023-02-22T17:20:18.885Z,25.52
2023-02-22T17:22:23.428Z,25.5
2023-02-22T17:24:27.891Z,25.5
2023-02-22T17:26:32.326Z,25.5
2023-02-22T17:28:36.928Z,25.5
2023-02-22T17:30:41.518Z,25.53
2023-02-22T17:32:46.188Z,25.55
2023-02-22T17:34:50.594Z,25.63
2023-02-22T17:36:55.116Z,25.68
2023-02-22T17:38:59.546Z,25.71
2023-02-22T17:41:04.213Z,25.74
2023-02-22T17:43:08.705Z,25.79
2023-02-22T17:45:13.306Z,25.81
2023-02-22T17:47:17.845Z,25.84
2023-02-22T17:49:22.426Z,25.84
2023-02-22T17:51:26.862Z,25.87
2023-02-22T17:53:31.422Z,25.87
2023-02-22T17:55:35.928Z,25.89
2023-02-22T17:57:40.484Z,25.91
2023-02-22T17:59:45.063Z,25.91
2023-02-22T18:01:49.555Z,25.95
2023-02-22T18:03:54.110Z,25.95
2023-02-22T18:05:58.810Z,26
2023-02-22T18:08:03.424Z,26.01
2023-02-22T18:10:07.821Z,26.01
2023-02-22T18:12:12.258Z,26.03
2023-02-22T18:14:16.686Z,26.03
2023-02-22T18:16:21.527Z,26.05
2023-02-22T18:18:26.552Z,26.05
2023-02-22T18:20:31.180Z,25.98
2023-02-22T18:22:35.735Z,26.05
2023-02-22T18:24:40.132Z,26.06
2023-02-22T18:26:44.643Z,26.1
2023-02-22T18:28:49.326Z,26.11
2023-02-22T18:30:54.833Z,26.11
2023-02-22T18:32:59.759Z,26.11
2023-02-22T18:35:04.282Z,26.13
2023-02-22T18:37:08.730Z,26.14
2023-02-22T18:39:13.469Z,26.14
2023-02-22T18:41:18.496Z,26.12
2023-02-22T18:43:23.171Z,26.13
2023-02-22T18:45:28.040Z,26.15
2023-02-22T18:47:32.597Z,26.15
2023-02-22T18:49:36.979Z,26.15
2023-02-22T18:51:41.398Z,26.11
2023-02-22T18:53:47.486Z,26.07
2023-02-22T18:55:52.222Z,26.04
2023-02-22T18:57:56.715Z,26.04
2023-02-22T19:00:01.145Z,26.04
2023-02-22T19:02:05.623Z,26.05
2023-02-22T19:04:10.370Z,26.06
2023-02-22T19:06:14.823Z,26.07
2023-02-22T19:08:20.513Z,26.08
2023-02-22T19:10:25.051Z,26.08
2023-02-22T19:12:29.510Z,26.08
2023-02-22T19:14:33.976Z,26.08
2023-02-22T19:16:38.416Z,26.08
2023-02-22T19:18:42.873Z,26.07
2023-02-22T19:20:47.325Z,26.05
2023-02-22T19:22:51.727Z,26.06
2023-02-22T19:24:56.270Z,26.06
2023-02-22T19:27:00.795Z,26.07
2023-02-22T19:29:05.407Z,26.11
2023-02-22T19:31:10.033Z,26.12
2023-02-22T19:33:15.014Z,26.13
2023-02-22T19:35:19.491Z,26.13
2023-02-22T19:37:23.929Z,26.13
2023-02-22T19:39:28.388Z,26.12
2023-02-22T19:41:33.010Z,26.12
2023-02-22T19:43:37.412Z,26.1
2023-02-22T19:45:42.009Z,26.07
2023-02-22T19:47:46.651Z,26.02
2023-02-22T19:49:51.173Z,26.01
2023-02-22T19:51:55.710Z,26
2023-02-22T19:54:00.092Z,25.99
2023-02-22T19:56:05.698Z,25.97
2023-02-22T19:58:10.367Z,25.95
2023-02-22T20:00:14.831Z,25.94
2023-02-22T20:02:19.282Z,25.96
2023-02-22T20:04:23.845Z,25.97
2023-02-22T20:06:28.861Z,25.97
2023-02-22T20:08:33.296Z,26.03
2023-02-22T20:10:37.705Z,26.06
2023-02-22T20:12:42.142Z,26.11
2023-02-22T20:14:46.560Z,26.14
2023-02-22T20:16:50.948Z,26.16
2023-02-22T20:18:55.374Z,26.18
2023-02-22T20:20:59.912Z,26.23
2023-02-22T20:23:04.395Z,26.23
2023-02-22T20:25:08.909Z,26.15
2023-02-22T20:27:13.342Z,26.07
2023-02-22T20:29:17.793Z,25.97
2023-02-22T20:31:22.368Z,25.88
2023-02-22T20:33:27.329Z,25.8
2023-02-22T20:35:32.567Z,25.74
2023-02-22T20:37:36.965Z,25.7
2023-02-22T20:39:41.410Z,25.64
2023-02-22T20:41:46.025Z,25.55
2023-02-22T20:43:50.437Z,25.46
2023-02-22T20:45:54.950Z,25.44
2023-02-22T20:47:59.670Z,25.39
2023-02-22T20:50:04.313Z,25.36
2023-02-22T20:52:08.795Z,25.34
2023-02-22T20:54:13.238Z,25.33
2023-02-22T20:56:17.656Z,25.31
2023-02-22T20:58:22.125Z,25.35
2023-02-22T21:00:26.525Z,25.41
2023-02-22T21:02:31.000Z,25.46
2023-02-22T21:04:35.523Z,25.47
2023-02-22T21:06:40.031Z,25.47
2023-02-22T21:08:44.907Z,25.52
2023-02-22T21:10:49.446Z,25.51
2023-02-22T21:12:54.024Z,25.55
2023-02-22T21:15:02.863Z,25.6
2023-02-22T21:17:07.345Z,25.62
2023-02-22T21:19:12.047Z,25.63
2023-02-22T21:21:16.965Z,25.63
2023-02-22T21:23:22.264Z,25.63
2023-02-22T21:25:26.678Z,25.64
2023-02-22T21:27:31.062Z,25.67
2023-02-22T21:29:35.671Z,25.68
2023-02-22T21:31:40.363Z,25.7
2023-02-22T21:33:45.514Z,25.74
2023-02-22T21:35:49.947Z,25.75
2023-02-22T21:37:54.370Z,25.77
2023-02-22T21:39:58.762Z,25.78
2023-02-22T21:42:03.309Z,25.79
2023-02-22T21:44:07.795Z,25.83
2023-02-22T21:46:12.375Z,25.87
2023-02-22T21:48:16.947Z,25.92
2023-02-22T21:50:21.380Z,25.97
2023-02-22T21:52:25.825Z,25.99
2023-02-22T21:54:30.194Z,25.97
2023-02-22T21:56:34.607Z,25.81
2023-02-22T21:58:39.151Z,25.63
2023-02-22T22:00:43.574Z,25.47
2023-02-22T22:02:48.094Z,25.29
2023-02-22T22:04:52.684Z,25.19
2023-02-22T22:06:57.121Z,25.09
2023-02-22T22:09:01.615Z,25.02
2023-02-22T22:11:05.990Z,24.94
2023-02-22T22:13:10.399Z,24.87
2023-02-22T22:15:14.907Z,24.8
2023-02-22T22:17:19.392Z,24.72
2023-02-22T22:19:23.810Z,24.65
2023-02-22T22:21:28.250Z,24.58
2023-02-22T22:23:32.610Z,24.53
2023-02-22T22:25:37.026Z,24.5
2023-02-22T22:27:41.521Z,24.46
2023-02-22T22:29:46.074Z,24.42
2023-02-22T22:31:50.610Z,24.38
2023-02-22T22:33:55.788Z,24.34
2023-02-22T22:36:00.300Z,24.29
2023-02-22T22:38:04.779Z,24.28
2023-02-22T22:40:09.288Z,24.31
2023-02-22T22:42:13.665Z,24.36
2023-02-22T22:44:18.070Z,24.39
2023-02-22T22:46:22.491Z,24.37
2023-02-22T22:48:27.115Z,24.46
2023-02-22T22:50:31.520Z,24.58
2023-02-22T22:52:36.027Z,24.68
2023-02-22T22:54:40.447Z,24.77
2023-02-22T22:56:44.820Z,24.85
2023-02-22T22:58:49.192Z,24.91
2023-02-22T23:00:53.611Z,25
2023-02-22T23:02:58.061Z,25.05
2023-02-22T23:05:02.853Z,25.12
2023-02-22T23:07:07.271Z,25.15
2023-02-22T23:09:11.854Z,25.18
2023-02-22T23:11:16.707Z,25.2
2023-02-22T23:13:22.053Z,25.22
2023-02-22T23:15:26.461Z,25.25
2023-02-22T23:17:31.397Z,25.27
2023-02-22T23:19:36.045Z,25.29
2023-02-22T23:21:40.506Z,25.31
2023-02-22T23:23:44.931Z,25.32
2023-02-22T23:25:49.400Z,25.32
2023-02-22T23:27:53.793Z,25.34
